sensor_id;sensor_type;location;lat;lon;timestamp;temperature;humidity
19516;DHT22;9901;47.448;7.692;2023-03-01T00:00:53;1.00;99.90
19516;DHT22;9901;47.448;7.692;2023-03-01T00:03:21;1.10;99.90
19516;DHT22;9901;47.448;7.692;2023-03-01T00:05:47;1.10;99.90
19516;DHT22;9901;47.448;7.692;2023-03-01T00:08:13;1.00;99.90
19516;DHT22;9901;47.448;7.692;2023-03-01T00:10:39;1.10;99.90
19516;DHT22;9901;47.448;7.692;2023-03-01T00:13:04;1.10;99.90
19516;DHT22;9901;47.448;7.692;2023-03-01T00:15:31;1.10;99.90
19516;DHT22;9901;47.448;7.692;2023-03-01T00:17:57;1.20;99.90
19516;DHT22;9901;47.448;7.692;2023-03-01T00:20:23;1.20;99.90
19516;DHT22;9901;47.448;7.692;2023-03-01T00:22:49;1.20;99.90
19516;DHT22;9901;47.448;7.692;2023-03-01T00:25:14;1.20;99.90
19516;DHT22;9901;47.448;7.692;2023-03-01T00:27:40;1.20;99.90
19516;DHT22;9901;47.448;7.692;2023-03-01T00:30:06;1.10;99.90
19516;DHT22;9901;47.448;7.692;2023-03-01T00:32:32;1.20;99.90
19516;DHT22;9901;47.448;7.692;2023-03-01T00:34:57;1.20;99.90
19516;DHT22;9901;47.448;7.692;2023-03-01T00:37:26;1.20;99.90
19516;DHT22;9901;47.448;7.692;2023-03-01T00:39:52;1.30;99.90
19516;DHT22;9901;47.448;7.692;2023-03-01T00:42:17;1.20;99.90
19516;DHT22;9901;47.448;7.692;2023-03-01T00:44:43;1.20;99.90
19516;DHT22;9901;47.448;7.692;2023-03-01T00:47:12;1.20;99.90
19516;DHT22;9901;47.448;7.692;2023-03-01T00:49:37;1.20;99.90
19516;DHT22;9901;47.448;7.692;2023-03-01T00:52:03;1.20;99.90
19516;DHT22;9901;47.448;7.692;2023-03-01T00:54:32;1.30;99.90
19516;DHT22;9901;47.448;7.692;2023-03-01T00:56:57;1.20;99.90
19516;DHT22;9901;47.448;7.692;2023-03-01T00:59:32;1.40;99.90
19516;DHT22;9901;47.448;7.692;2023-03-01T01:01:57;1.30;99.90
19516;DHT22;9901;47.448;7.692;2023-03-01T01:04:24;1.30;99.90
19516;DHT22;9901;47.448;7.692;2023-03-01T01:06:49;1.30;99.90
19516;DHT22;9901;47.448;7.692;2023-03-01T01:09:23;1.30;99.90
19516;DHT22;9901;47.448;7.692;2023-03-01T01:11:50;1.40;99.90
19516;DHT22;9901;47.448;7.692;2023-03-01T01:14:19;1.30;99.90
19516;DHT22;9901;47.448;7.692;2023-03-01T01:16:45;1.30;99.90
19516;DHT22;9901;47.448;7.692;2023-03-01T01:19:11;1.20;99.90
19516;DHT22;9901;47.448;7.692;2023-03-01T01:21:37;1.30;99.90
19516;DHT22;9901;47.448;7.692;2023-03-01T01:24:04;1.30;99.90
19516;DHT22;9901;47.448;7.692;2023-03-01T01:26:32;1.30;99.90
19516;DHT22;9901;47.448;7.692;2023-03-01T01:28:59;1.20;99.90
19516;DHT22;9901;47.448;7.692;2023-03-01T01:31:26;1.30;99.90
19516;DHT22;9901;47.448;7.692;2023-03-01T01:33:53;1.30;99.90
19516;DHT22;9901;47.448;7.692;2023-03-01T01:36:20;1.30;99.90
19516;DHT22;9901;47.448;7.692;2023-03-01T01:38:45;1.30;99.90
19516;DHT22;9901;47.448;7.692;2023-03-01T01:41:12;1.30;99.90
19516;DHT22;9901;47.448;7.692;2023-03-01T01:43:50;1.30;99.90
19516;DHT22;9901;47.448;7.692;2023-03-01T01:46:43;1.30;99.90
19516;DHT22;9901;47.448;7.692;2023-03-01T01:49:19;1.30;99.90
19516;DHT22;9901;47.448;7.692;2023-03-01T01:51:49;1.30;99.90
19516;DHT22;9901;47.448;7.692;2023-03-01T01:54:29;1.20;99.90
19516;DHT22;9901;47.448;7.692;2023-03-01T01:57:00;1.20;99.90
19516;DHT22;9901;47.448;7.692;2023-03-01T01:59:28;1.40;99.90
19516;DHT22;9901;47.448;7.692;2023-03-01T02:01:58;1.20;99.90
19516;DHT22;9901;47.448;7.692;2023-03-01T02:04:24;1.20;99.90
19516;DHT22;9901;47.448;7.692;2023-03-01T02:07:00;1.20;99.90
19516;DHT22;9901;47.448;7.692;2023-03-01T02:09:30;1.20;99.90
19516;DHT22;9901;47.448;7.692;2023-03-01T02:12:02;1.20;99.90
19516;DHT22;9901;47.448;7.692;2023-03-01T02:14:27;1.20;99.90
19516;DHT22;9901;47.448;7.692;2023-03-01T02:16:53;1.20;99.90
19516;DHT22;9901;47.448;7.692;2023-03-01T02:27:54;1.20;99.90
19516;DHT22;9901;47.448;7.692;2023-03-01T02:30:22;1.20;99.90
19516;DHT22;9901;47.448;7.692;2023-03-01T02:32:50;1.30;99.90
19516;DHT22;9901;47.448;7.692;2023-03-01T02:35:18;1.30;99.90
19516;DHT22;9901;47.448;7.692;2023-03-01T02:37:45;1.30;99.90
19516;DHT22;9901;47.448;7.692;2023-03-01T02:40:19;1.30;99.90
19516;DHT22;9901;47.448;7.692;2023-03-01T02:42:58;1.30;99.90
19516;DHT22;9901;47.448;7.692;2023-03-01T02:45:25;1.30;99.90
19516;DHT22;9901;47.448;7.692;2023-03-01T02:47:54;1.20;99.90
19516;DHT22;9901;47.448;7.692;2023-03-01T02:53:15;1.20;99.90
19516;DHT22;9901;47.448;7.692;2023-03-01T02:55:42;1.20;99.90
19516;DHT22;9901;47.448;7.692;2023-03-01T02:58:08;1.20;99.90
19516;DHT22;9901;47.448;7.692;2023-03-01T03:00:40;1.20;99.90
19516;DHT22;9901;47.448;7.692;2023-03-01T03:03:19;1.20;99.90
19516;DHT22;9901;47.448;7.692;2023-03-01T03:05:45;1.20;99.90
19516;DHT22;9901;47.448;7.692;2023-03-01T03:08:11;1.20;99.90
19516;DHT22;9901;47.448;7.692;2023-03-01T03:10:39;1.20;99.90
19516;DHT22;9901;47.448;7.692;2023-03-01T03:13:11;1.30;99.90
19516;DHT22;9901;47.448;7.692;2023-03-01T03:15:38;1.20;99.90
19516;DHT22;9901;47.448;7.692;2023-03-01T03:18:07;1.20;99.90
19516;DHT22;9901;47.448;7.692;2023-03-01T03:20:33;1.20;99.90
19516;DHT22;9901;47.448;7.692;2023-03-01T03:23:02;1.20;99.90
19516;DHT22;9901;47.448;7.692;2023-03-01T03:25:31;1.20;99.90
19516;DHT22;9901;47.448;7.692;2023-03-01T03:27:57;1.20;99.90
19516;DHT22;9901;47.448;7.692;2023-03-01T03:30:29;1.20;99.90
19516;DHT22;9901;47.448;7.692;2023-03-01T03:32:56;1.20;99.90
19516;DHT22;9901;47.448;7.692;2023-03-01T03:35:30;1.20;99.90
19516;DHT22;9901;47.448;7.692;2023-03-01T03:38:01;1.30;99.90
19516;DHT22;9901;47.448;7.692;2023-03-01T03:40:38;1.20;99.90
19516;DHT22;9901;47.448;7.692;2023-03-01T03:43:06;1.20;99.90
19516;DHT22;9901;47.448;7.692;2023-03-01T03:45:32;1.30;99.90
19516;DHT22;9901;47.448;7.692;2023-03-01T03:48:04;1.30;99.90
19516;DHT22;9901;47.448;7.692;2023-03-01T03:50:33;1.30;99.90
19516;DHT22;9901;47.448;7.692;2023-03-01T03:53:05;1.30;99.90
19516;DHT22;9901;47.448;7.692;2023-03-01T03:55:34;1.20;99.90
19516;DHT22;9901;47.448;7.692;2023-03-01T03:58:02;1.20;99.90
19516;DHT22;9901;47.448;7.692;2023-03-01T04:00:39;1.20;99.90
19516;DHT22;9901;47.448;7.692;2023-03-01T04:03:06;1.20;99.90
19516;DHT22;9901;47.448;7.692;2023-03-01T04:05:32;1.20;99.90
19516;DHT22;9901;47.448;7.692;2023-03-01T04:07:57;1.20;99.90
19516;DHT22;9901;47.448;7.692;2023-03-01T04:10:31;1.10;99.90
19516;DHT22;9901;47.448;7.692;2023-03-01T04:13:00;1.10;99.90
19516;DHT22;9901;47.448;7.692;2023-03-01T04:15:26;1.20;99.90
19516;DHT22;9901;47.448;7.692;2023-03-01T04:17:53;1.10;99.90
19516;DHT22;9901;47.448;7.692;2023-03-01T04:20:24;1.20;99.90
19516;DHT22;9901;47.448;7.692;2023-03-01T04:22:52;1.10;99.90
19516;DHT22;9901;47.448;7.692;2023-03-01T04:25:18;1.10;99.90
19516;DHT22;9901;47.448;7.692;2023-03-01T04:30:10;1.10;99.90
19516;DHT22;9901;47.448;7.692;2023-03-01T04:32:36;1.10;99.90
19516;DHT22;9901;47.448;7.692;2023-03-01T04:35:02;1.20;99.90
19516;DHT22;9901;47.448;7.692;2023-03-01T04:37:30;1.10;99.90
19516;DHT22;9901;47.448;7.692;2023-03-01T04:39:59;1.10;99.90
19516;DHT22;9901;47.448;7.692;2023-03-01T04:42:24;1.20;99.90
19516;DHT22;9901;47.448;7.692;2023-03-01T04:44:50;1.10;99.90
19516;DHT22;9901;47.448;7.692;2023-03-01T04:47:18;1.10;99.90
19516;DHT22;9901;47.448;7.692;2023-03-01T04:49:46;1.10;99.90
19516;DHT22;9901;47.448;7.692;2023-03-01T04:52:15;1.10;99.90
19516;DHT22;9901;47.448;7.692;2023-03-01T04:54:41;1.10;99.90
19516;DHT22;9901;47.448;7.692;2023-03-01T04:57:06;1.00;99.90
19516;DHT22;9901;47.448;7.692;2023-03-01T04:59:32;1.10;99.90
19516;DHT22;9901;47.448;7.692;2023-03-01T05:01:57;1.10;99.90
19516;DHT22;9901;47.448;7.692;2023-03-01T05:04:25;1.10;99.90
19516;DHT22;9901;47.448;7.692;2023-03-01T05:06:51;1.10;99.90
19516;DHT22;9901;47.448;7.692;2023-03-01T05:09:18;1.10;99.90
19516;DHT22;9901;47.448;7.692;2023-03-01T05:11:44;1.10;99.90
19516;DHT22;9901;47.448;7.692;2023-03-01T05:14:11;1.10;99.90
19516;DHT22;9901;47.448;7.692;2023-03-01T05:16:46;1.10;99.90
19516;DHT22;9901;47.448;7.692;2023-03-01T05:19:12;1.10;99.90
19516;DHT22;9901;47.448;7.692;2023-03-01T05:21:42;1.10;99.90
19516;DHT22;9901;47.448;7.692;2023-03-01T05:24:27;1.10;99.90
19516;DHT22;9901;47.448;7.692;2023-03-01T05:26:54;1.20;99.90
19516;DHT22;9901;47.448;7.692;2023-03-01T05:29:21;1.20;99.90
19516;DHT22;9901;47.448;7.692;2023-03-01T05:31:57;1.20;99.90
19516;DHT22;9901;47.448;7.692;2023-03-01T05:34:34;1.20;99.90
19516;DHT22;9901;47.448;7.692;2023-03-01T05:37:01;1.20;99.90
19516;DHT22;9901;47.448;7.692;2023-03-01T05:39:28;1.20;99.90
19516;DHT22;9901;47.448;7.692;2023-03-01T05:42:04;1.20;99.90
19516;DHT22;9901;47.448;7.692;2023-03-01T05:44:30;1.20;99.90
19516;DHT22;9901;47.448;7.692;2023-03-01T05:46:56;1.20;99.90
19516;DHT22;9901;47.448;7.692;2023-03-01T05:49:22;1.20;99.90
19516;DHT22;9901;47.448;7.692;2023-03-01T05:51:51;1.10;99.90
19516;DHT22;9901;47.448;7.692;2023-03-01T05:54:22;1.20;99.90
19516;DHT22;9901;47.448;7.692;2023-03-01T05:56:47;1.20;99.90
19516;DHT22;9901;47.448;7.692;2023-03-01T05:59:13;1.20;99.90
19516;DHT22;9901;47.448;7.692;2023-03-01T06:01:43;1.20;99.90
19516;DHT22;9901;47.448;7.692;2023-03-01T06:04:09;1.20;99.90
19516;DHT22;9901;47.448;7.692;2023-03-01T06:06:36;1.20;99.90
19516;DHT22;9901;47.448;7.692;2023-03-01T06:09:06;1.20;99.90
19516;DHT22;9901;47.448;7.692;2023-03-01T06:11:35;1.20;99.90
19516;DHT22;9901;47.448;7.692;2023-03-01T06:14:01;1.20;99.90
19516;DHT22;9901;47.448;7.692;2023-03-01T06:16:26;1.20;99.90
19516;DHT22;9901;47.448;7.692;2023-03-01T06:18:53;1.20;99.90
19516;DHT22;9901;47.448;7.692;2023-03-01T06:21:18;1.20;99.90
19516;DHT22;9901;47.448;7.692;2023-03-01T06:23:47;1.20;99.90
19516;DHT22;9901;47.448;7.692;2023-03-01T06:26:13;1.20;99.90
19516;DHT22;9901;47.448;7.692;2023-03-01T06:28:38;1.20;99.90
19516;DHT22;9901;47.448;7.692;2023-03-01T06:31:04;1.20;99.90
19516;DHT22;9901;47.448;7.692;2023-03-01T06:33:33;1.20;99.90
19516;DHT22;9901;47.448;7.692;2023-03-01T06:35:59;1.20;99.90
19516;DHT22;9901;47.448;7.692;2023-03-01T06:38:24;1.20;99.90
19516;DHT22;9901;47.448;7.692;2023-03-01T06:40:54;1.20;99.90
19516;DHT22;9901;47.448;7.692;2023-03-01T06:43:26;1.20;99.90
19516;DHT22;9901;47.448;7.692;2023-03-01T06:45:51;1.20;99.90
19516;DHT22;9901;47.448;7.692;2023-03-01T06:48:17;1.20;99.90
19516;DHT22;9901;47.448;7.692;2023-03-01T06:50:42;1.20;99.90
19516;DHT22;9901;47.448;7.692;2023-03-01T06:53:08;1.20;99.90
19516;DHT22;9901;47.448;7.692;2023-03-01T06:55:34;1.20;99.90
19516;DHT22;9901;47.448;7.692;2023-03-01T06:58:01;1.30;99.90
19516;DHT22;9901;47.448;7.692;2023-03-01T07:00:27;1.30;99.90
19516;DHT22;9901;47.448;7.692;2023-03-01T07:02:54;1.20;99.90
19516;DHT22;9901;47.448;7.692;2023-03-01T07:05:20;1.30;99.90
19516;DHT22;9901;47.448;7.692;2023-03-01T07:07:46;1.30;99.90
19516;DHT22;9901;47.448;7.692;2023-03-01T07:10:14;1.20;99.90
19516;DHT22;9901;47.448;7.692;2023-03-01T07:12:39;1.20;99.90
19516;DHT22;9901;47.448;7.692;2023-03-01T07:15:08;1.20;99.90
19516;DHT22;9901;47.448;7.692;2023-03-01T07:17:37;1.20;99.90
19516;DHT22;9901;47.448;7.692;2023-03-01T07:20:03;1.20;99.90
19516;DHT22;9901;47.448;7.692;2023-03-01T07:22:29;1.20;99.90
19516;DHT22;9901;47.448;7.692;2023-03-01T07:24:55;1.20;99.90
19516;DHT22;9901;47.448;7.692;2023-03-01T07:29:46;1.20;99.90
19516;DHT22;9901;47.448;7.692;2023-03-01T07:32:12;1.20;99.90
19516;DHT22;9901;47.448;7.692;2023-03-01T07:34:37;1.20;99.90
19516;DHT22;9901;47.448;7.692;2023-03-01T07:37:03;1.20;99.90
19516;DHT22;9901;47.448;7.692;2023-03-01T07:39:29;1.20;99.90
19516;DHT22;9901;47.448;7.692;2023-03-01T07:44:20;1.20;99.90
19516;DHT22;9901;47.448;7.692;2023-03-01T07:46:46;1.20;99.90
19516;DHT22;9901;47.448;7.692;2023-03-01T07:49:12;1.20;99.90
19516;DHT22;9901;47.448;7.692;2023-03-01T07:51:37;1.20;99.90
19516;DHT22;9901;47.448;7.692;2023-03-01T07:54:05;1.30;99.90
19516;DHT22;9901;47.448;7.692;2023-03-01T07:56:31;1.30;99.90
19516;DHT22;9901;47.448;7.692;2023-03-01T07:58:59;1.20;99.90
19516;DHT22;9901;47.448;7.692;2023-03-01T08:01:25;1.20;99.90
19516;DHT22;9901;47.448;7.692;2023-03-01T08:03:50;1.30;99.90
19516;DHT22;9901;47.448;7.692;2023-03-01T08:06:17;1.30;99.90
19516;DHT22;9901;47.448;7.692;2023-03-01T08:08:43;1.30;99.90
19516;DHT22;9901;47.448;7.692;2023-03-01T08:11:11;1.30;99.90
19516;DHT22;9901;47.448;7.692;2023-03-01T08:13:40;1.30;99.90
19516;DHT22;9901;47.448;7.692;2023-03-01T08:16:11;1.20;99.90
19516;DHT22;9901;47.448;7.692;2023-03-01T08:18:37;1.30;99.90
19516;DHT22;9901;47.448;7.692;2023-03-01T08:21:11;1.30;99.90
19516;DHT22;9901;47.448;7.692;2023-03-01T08:23:40;1.20;99.90
19516;DHT22;9901;47.448;7.692;2023-03-01T08:26:17;1.20;99.90
19516;DHT22;9901;47.448;7.692;2023-03-01T08:28:48;1.20;99.90
19516;DHT22;9901;47.448;7.692;2023-03-01T08:31:21;1.30;99.90
19516;DHT22;9901;47.448;7.692;2023-03-01T08:33:48;1.30;99.90
19516;DHT22;9901;47.448;7.692;2023-03-01T08:36:17;1.40;99.90
19516;DHT22;9901;47.448;7.692;2023-03-01T08:38:45;1.40;99.90
19516;DHT22;9901;47.448;7.692;2023-03-01T08:41:11;1.30;99.90
19516;DHT22;9901;47.448;7.692;2023-03-01T08:43:37;1.40;99.90
19516;DHT22;9901;47.448;7.692;2023-03-01T08:46:02;1.40;99.90
19516;DHT22;9901;47.448;7.692;2023-03-01T08:48:28;1.40;99.90
19516;DHT22;9901;47.448;7.692;2023-03-01T08:50:54;1.40;99.90
19516;DHT22;9901;47.448;7.692;2023-03-01T08:53:22;1.40;99.90
19516;DHT22;9901;47.448;7.692;2023-03-01T08:55:48;1.40;99.90
19516;DHT22;9901;47.448;7.692;2023-03-01T08:58:14;1.40;99.90
19516;DHT22;9901;47.448;7.692;2023-03-01T09:00:40;1.40;99.90
19516;DHT22;9901;47.448;7.692;2023-03-01T09:03:05;1.40;99.90
19516;DHT22;9901;47.448;7.692;2023-03-01T09:05:35;1.40;99.90
19516;DHT22;9901;47.448;7.692;2023-03-01T09:08:02;1.40;99.90
19516;DHT22;9901;47.448;7.692;2023-03-01T09:10:27;1.40;99.90
19516;DHT22;9901;47.448;7.692;2023-03-01T09:12:53;1.30;99.90
19516;DHT22;9901;47.448;7.692;2023-03-01T09:15:19;1.40;99.90
19516;DHT22;9901;47.448;7.692;2023-03-01T09:17:46;1.20;99.90
19516;DHT22;9901;47.448;7.692;2023-03-01T09:20:18;1.40;99.90
19516;DHT22;9901;47.448;7.692;2023-03-01T09:22:44;1.50;99.90
19516;DHT22;9901;47.448;7.692;2023-03-01T09:25:10;1.40;99.90
19516;DHT22;9901;47.448;7.692;2023-03-01T09:27:47;1.40;99.90
19516;DHT22;9901;47.448;7.692;2023-03-01T09:32:41;1.40;99.90
19516;DHT22;9901;47.448;7.692;2023-03-01T09:35:08;1.40;99.90
19516;DHT22;9901;47.448;7.692;2023-03-01T09:37:36;1.50;99.90
19516;DHT22;9901;47.448;7.692;2023-03-01T09:40:04;1.50;99.90
19516;DHT22;9901;47.448;7.692;2023-03-01T09:42:33;1.50;99.90
19516;DHT22;9901;47.448;7.692;2023-03-01T09:45:06;1.50;99.90
19516;DHT22;9901;47.448;7.692;2023-03-01T09:47:35;1.60;99.90
19516;DHT22;9901;47.448;7.692;2023-03-01T09:50:26;1.60;99.90
19516;DHT22;9901;47.448;7.692;2023-03-01T09:55:48;1.60;99.90
19516;DHT22;9901;47.448;7.692;2023-03-01T10:04:39;1.50;99.90
19516;DHT22;9901;47.448;7.692;2023-03-01T10:09:55;1.60;99.90
19516;DHT22;9901;47.448;7.692;2023-03-01T10:12:33;1.60;99.90
19516;DHT22;9901;47.448;7.692;2023-03-01T10:15:14;1.60;99.90
19516;DHT22;9901;47.448;7.692;2023-03-01T10:17:48;1.70;99.90
19516;DHT22;9901;47.448;7.692;2023-03-01T10:20:21;1.70;99.90
19516;DHT22;9901;47.448;7.692;2023-03-01T10:22:53;1.60;99.90
19516;DHT22;9901;47.448;7.692;2023-03-01T10:28:56;1.70;99.90
19516;DHT22;9901;47.448;7.692;2023-03-01T10:31:49;1.80;99.90
19516;DHT22;9901;47.448;7.692;2023-03-01T10:34:30;1.80;99.90
19516;DHT22;9901;47.448;7.692;2023-03-01T10:37:13;1.80;99.90
19516;DHT22;9901;47.448;7.692;2023-03-01T10:42:31;1.80;99.90
19516;DHT22;9901;47.448;7.692;2023-03-01T10:44:57;1.80;99.90
19516;DHT22;9901;47.448;7.692;2023-03-01T10:47:26;1.90;99.90
19516;DHT22;9901;47.448;7.692;2023-03-01T10:50:17;1.90;99.90
19516;DHT22;9901;47.448;7.692;2023-03-01T10:52:59;1.90;99.90
19516;DHT22;9901;47.448;7.692;2023-03-01T10:55:35;1.90;99.90
19516;DHT22;9901;47.448;7.692;2023-03-01T11:01:00;1.90;99.90
19516;DHT22;9901;47.448;7.692;2023-03-01T11:08:49;2.00;99.90
19516;DHT22;9901;47.448;7.692;2023-03-01T11:14:20;2.00;99.90
19516;DHT22;9901;47.448;7.692;2023-03-01T11:16:48;2.00;99.90
19516;DHT22;9901;47.448;7.692;2023-03-01T11:19:18;2.00;99.90
19516;DHT22;9901;47.448;7.692;2023-03-01T11:21:59;2.00;99.90
19516;DHT22;9901;47.448;7.692;2023-03-01T11:24:47;2.00;99.90
19516;DHT22;9901;47.448;7.692;2023-03-01T11:27:32;2.00;99.90
19516;DHT22;9901;47.448;7.692;2023-03-01T11:33:13;2.10;99.90
19516;DHT22;9901;47.448;7.692;2023-03-01T11:35:55;2.10;99.90
19516;DHT22;9901;47.448;7.692;2023-03-01T11:38:25;2.10;99.90
19516;DHT22;9901;47.448;7.692;2023-03-01T11:44:19;2.10;99.90
19516;DHT22;9901;47.448;7.692;2023-03-01T11:49:51;2.20;99.90
19516;DHT22;9901;47.448;7.692;2023-03-01T11:52:27;2.20;99.90
19516;DHT22;9901;47.448;7.692;2023-03-01T11:55:45;2.20;99.90
19516;DHT22;9901;47.448;7.692;2023-03-01T11:58:17;2.20;99.90
19516;DHT22;9901;47.448;7.692;2023-03-01T12:01:08;2.20;99.90
19516;DHT22;9901;47.448;7.692;2023-03-01T12:10:31;2.30;99.90
19516;DHT22;9901;47.448;7.692;2023-03-01T12:16:26;2.30;99.90
19516;DHT22;9901;47.448;7.692;2023-03-01T12:30:36;2.30;99.90
19516;DHT22;9901;47.448;7.692;2023-03-01T12:33:23;2.30;99.90
19516;DHT22;9901;47.448;7.692;2023-03-01T12:36:52;2.40;99.90
19516;DHT22;9901;47.448;7.692;2023-03-01T12:51:05;2.40;99.90
19516;DHT22;9901;47.448;7.692;2023-03-01T12:53:47;2.40;99.90
19516;DHT22;9901;47.448;7.692;2023-03-01T12:56:23;2.40;99.90
19516;DHT22;9901;47.448;7.692;2023-03-01T12:59:23;2.40;99.90
19516;DHT22;9901;47.448;7.692;2023-03-01T13:04:47;2.30;99.90
19516;DHT22;9901;47.448;7.692;2023-03-01T13:10:50;2.40;99.90
19516;DHT22;9901;47.448;7.692;2023-03-01T13:17:48;2.40;99.90
19516;DHT22;9901;47.448;7.692;2023-03-01T13:20:17;2.40;99.90
19516;DHT22;9901;47.448;7.692;2023-03-01T13:22:45;2.40;99.90
19516;DHT22;9901;47.448;7.692;2023-03-01T13:25:19;2.40;99.90
19516;DHT22;9901;47.448;7.692;2023-03-01T13:27:46;2.40;99.90
19516;DHT22;9901;47.448;7.692;2023-03-01T13:35:58;2.40;99.90
19516;DHT22;9901;47.448;7.692;2023-03-01T13:38:37;2.40;99.90
19516;DHT22;9901;47.448;7.692;2023-03-01T13:41:04;2.40;99.90
19516;DHT22;9901;47.448;7.692;2023-03-01T13:43:38;2.40;99.90
19516;DHT22;9901;47.448;7.692;2023-03-01T13:46:21;2.50;99.90
19516;DHT22;9901;47.448;7.692;2023-03-01T13:48:51;2.40;99.90
19516;DHT22;9901;47.448;7.692;2023-03-01T13:51:25;2.40;99.90
19516;DHT22;9901;47.448;7.692;2023-03-01T13:53:53;2.50;99.90
19516;DHT22;9901;47.448;7.692;2023-03-01T13:56:25;2.50;99.90
19516;DHT22;9901;47.448;7.692;2023-03-01T13:59:14;2.50;99.90
19516;DHT22;9901;47.448;7.692;2023-03-01T14:01:53;2.60;99.90
19516;DHT22;9901;47.448;7.692;2023-03-01T14:04:30;2.70;99.90
19516;DHT22;9901;47.448;7.692;2023-03-01T14:07:20;2.60;99.90
19516;DHT22;9901;47.448;7.692;2023-03-01T14:10:03;2.60;99.90
19516;DHT22;9901;47.448;7.692;2023-03-01T14:15:26;2.70;99.90
19516;DHT22;9901;47.448;7.692;2023-03-01T14:18:24;2.70;99.90
19516;DHT22;9901;47.448;7.692;2023-03-01T14:20:52;2.80;99.90
19516;DHT22;9901;47.448;7.692;2023-03-01T14:23:27;2.90;99.90
19516;DHT22;9901;47.448;7.692;2023-03-01T14:26:00;3.00;99.90
19516;DHT22;9901;47.448;7.692;2023-03-01T14:28:28;3.00;99.90
19516;DHT22;9901;47.448;7.692;2023-03-01T14:31:01;3.00;99.90
19516;DHT22;9901;47.448;7.692;2023-03-01T14:33:36;3.00;99.90
19516;DHT22;9901;47.448;7.692;2023-03-01T14:36:35;3.00;99.90
19516;DHT22;9901;47.448;7.692;2023-03-01T14:39:01;3.00;99.90
19516;DHT22;9901;47.448;7.692;2023-03-01T14:41:43;2.90;99.90
19516;DHT22;9901;47.448;7.692;2023-03-01T14:44:15;2.90;99.90
19516;DHT22;9901;47.448;7.692;2023-03-01T14:46:44;2.80;99.90
19516;DHT22;9901;47.448;7.692;2023-03-01T14:49:17;2.80;99.90
19516;DHT22;9901;47.448;7.692;2023-03-01T14:51:59;2.80;99.90
19516;DHT22;9901;47.448;7.692;2023-03-01T14:54:39;2.80;99.90
19516;DHT22;9901;47.448;7.692;2023-03-01T14:57:06;2.80;99.90
19516;DHT22;9901;47.448;7.692;2023-03-01T14:59:48;2.80;99.90
19516;DHT22;9901;47.448;7.692;2023-03-01T15:02:34;2.80;99.90
19516;DHT22;9901;47.448;7.692;2023-03-01T15:05:03;2.90;99.90
19516;DHT22;9901;47.448;7.692;2023-03-01T15:07:35;2.80;99.90
19516;DHT22;9901;47.448;7.692;2023-03-01T15:10:04;2.80;99.90
19516;DHT22;9901;47.448;7.692;2023-03-01T15:12:43;2.80;99.90
19516;DHT22;9901;47.448;7.692;2023-03-01T15:17:59;2.90;99.90
19516;DHT22;9901;47.448;7.692;2023-03-01T15:20:33;3.00;99.90
19516;DHT22;9901;47.448;7.692;2023-03-01T15:23:02;3.10;99.90
19516;DHT22;9901;47.448;7.692;2023-03-01T15:25:29;3.10;99.90
19516;DHT22;9901;47.448;7.692;2023-03-01T15:27:57;3.10;99.90
19516;DHT22;9901;47.448;7.692;2023-03-01T15:30:32;3.00;99.90
19516;DHT22;9901;47.448;7.692;2023-03-01T15:35:50;3.10;99.90
19516;DHT22;9901;47.448;7.692;2023-03-01T15:41:30;3.10;99.90
19516;DHT22;9901;47.448;7.692;2023-03-01T15:44:00;3.10;99.90
19516;DHT22;9901;47.448;7.692;2023-03-01T15:46:46;3.10;99.90
19516;DHT22;9901;47.448;7.692;2023-03-01T15:49:40;3.10;99.90
19516;DHT22;9901;47.448;7.692;2023-03-01T15:52:41;3.10;99.90
19516;DHT22;9901;47.448;7.692;2023-03-01T15:55:21;3.10;99.90
19516;DHT22;9901;47.448;7.692;2023-03-01T15:58:24;3.10;99.90
19516;DHT22;9901;47.448;7.692;2023-03-01T16:00:51;3.00;99.90
19516;DHT22;9901;47.448;7.692;2023-03-01T16:03:24;3.00;99.90
19516;DHT22;9901;47.448;7.692;2023-03-01T16:05:53;2.90;99.90
19516;DHT22;9901;47.448;7.692;2023-03-01T16:08:19;2.90;99.90
19516;DHT22;9901;47.448;7.692;2023-03-01T16:11:08;3.00;99.90
19516;DHT22;9901;47.448;7.692;2023-03-01T16:13:37;2.90;99.90
19516;DHT22;9901;47.448;7.692;2023-03-01T16:16:03;2.90;99.90
19516;DHT22;9901;47.448;7.692;2023-03-01T16:18:29;2.80;99.90
19516;DHT22;9901;47.448;7.692;2023-03-01T16:20:55;2.80;99.90
19516;DHT22;9901;47.448;7.692;2023-03-01T16:23:22;2.80;99.90
19516;DHT22;9901;47.448;7.692;2023-03-01T16:25:51;2.80;99.90
19516;DHT22;9901;47.448;7.692;2023-03-01T16:28:24;2.80;99.90
19516;DHT22;9901;47.448;7.692;2023-03-01T16:31:15;2.80;99.90
19516;DHT22;9901;47.448;7.692;2023-03-01T16:33:42;2.70;99.90
19516;DHT22;9901;47.448;7.692;2023-03-01T16:36:09;2.70;99.90
19516;DHT22;9901;47.448;7.692;2023-03-01T16:38:51;2.60;99.90
19516;DHT22;9901;47.448;7.692;2023-03-01T16:41:19;2.50;99.90
19516;DHT22;9901;47.448;7.692;2023-03-01T16:43:49;2.50;99.90
19516;DHT22;9901;47.448;7.692;2023-03-01T16:46:20;2.50;99.90
19516;DHT22;9901;47.448;7.692;2023-03-01T16:48:46;2.50;99.90
19516;DHT22;9901;47.448;7.692;2023-03-01T16:51:12;2.40;99.90
19516;DHT22;9901;47.448;7.692;2023-03-01T16:53:38;2.40;99.90
19516;DHT22;9901;47.448;7.692;2023-03-01T16:56:07;2.40;99.90
19516;DHT22;9901;47.448;7.692;2023-03-01T16:58:34;2.40;99.90
19516;DHT22;9901;47.448;7.692;2023-03-01T17:01:14;2.40;99.90
19516;DHT22;9901;47.448;7.692;2023-03-01T17:03:44;2.30;99.90
19516;DHT22;9901;47.448;7.692;2023-03-01T17:06:14;2.20;99.90
19516;DHT22;9901;47.448;7.692;2023-03-01T17:08:40;2.30;99.90
19516;DHT22;9901;47.448;7.692;2023-03-01T17:11:11;2.20;99.90
19516;DHT22;9901;47.448;7.692;2023-03-01T17:13:42;2.20;99.90
19516;DHT22;9901;47.448;7.692;2023-03-01T17:16:16;2.20;99.90
19516;DHT22;9901;47.448;7.692;2023-03-01T17:18:42;2.10;99.90
19516;DHT22;9901;47.448;7.692;2023-03-01T17:21:08;2.10;99.90
19516;DHT22;9901;47.448;7.692;2023-03-01T17:23:36;2.00;99.90
19516;DHT22;9901;47.448;7.692;2023-03-01T17:26:04;2.00;99.90
19516;DHT22;9901;47.448;7.692;2023-03-01T17:28:31;1.90;99.90
19516;DHT22;9901;47.448;7.692;2023-03-01T17:31:01;1.90;99.90
19516;DHT22;9901;47.448;7.692;2023-03-01T17:33:28;1.90;99.90
19516;DHT22;9901;47.448;7.692;2023-03-01T17:35:58;1.80;99.90
19516;DHT22;9901;47.448;7.692;2023-03-01T17:38:27;1.80;99.90
19516;DHT22;9901;47.448;7.692;2023-03-01T17:41:02;1.80;99.90
19516;DHT22;9901;47.448;7.692;2023-03-01T17:43:49;1.60;99.90
19516;DHT22;9901;47.448;7.692;2023-03-01T17:46:17;1.60;99.90
19516;DHT22;9901;47.448;7.692;2023-03-01T17:48:44;1.60;99.90
19516;DHT22;9901;47.448;7.692;2023-03-01T17:54:46;1.60;99.90
19516;DHT22;9901;47.448;7.692;2023-03-01T17:57:13;1.50;99.90
19516;DHT22;9901;47.448;7.692;2023-03-01T17:59:45;1.50;99.90
19516;DHT22;9901;47.448;7.692;2023-03-01T18:02:19;1.60;99.90
19516;DHT22;9901;47.448;7.692;2023-03-01T18:04:50;1.60;99.90
19516;DHT22;9901;47.448;7.692;2023-03-01T18:07:21;1.60;99.90
19516;DHT22;9901;47.448;7.692;2023-03-01T18:09:56;1.50;99.90
19516;DHT22;9901;47.448;7.692;2023-03-01T18:12:24;1.50;99.90
19516;DHT22;9901;47.448;7.692;2023-03-01T18:14:50;1.60;99.90
19516;DHT22;9901;47.448;7.692;2023-03-01T18:17:19;1.50;99.90
19516;DHT22;9901;47.448;7.692;2023-03-01T18:19:50;1.60;99.90
19516;DHT22;9901;47.448;7.692;2023-03-01T18:22:22;1.70;99.90
19516;DHT22;9901;47.448;7.692;2023-03-01T18:24:48;1.70;99.90
19516;DHT22;9901;47.448;7.692;2023-03-01T18:27:24;1.80;99.90
19516;DHT22;9901;47.448;7.692;2023-03-01T18:29:50;1.90;99.90